sensor_id;sensor_type;location;lat;lon;timestamp;temperature;humidity
64855;DHT22;51321;50.428;8.378;2023-02-13T00:02:02;7.40;99.90
64855;DHT22;51321;50.428;8.378;2023-02-13T00:04:43;7.40;99.90
64855;DHT22;51321;50.428;8.378;2023-02-13T00:07:30;7.40;99.90
64855;DHT22;51321;50.428;8.378;2023-02-13T00:10:11;7.50;99.90
64855;DHT22;51321;50.428;8.378;2023-02-13T00:12:54;7.50;99.90
64855;DHT22;51321;50.428;8.378;2023-02-13T00:15:37;7.40;99.90
64855;DHT22;51321;50.428;8.378;2023-02-13T00:18:21;7.50;99.90
64855;DHT22;51321;50.428;8.378;2023-02-13T00:21:04;7.40;99.90
64855;DHT22;51321;50.428;8.378;2023-02-13T00:23:47;7.40;99.90
64855;DHT22;51321;50.428;8.378;2023-02-13T00:26:29;7.40;99.90
64855;DHT22;51321;50.428;8.378;2023-02-13T00:29:12;7.40;99.90
64855;DHT22;51321;50.428;8.378;2023-02-13T00:31:53;7.50;99.90
64855;DHT22;51321;50.428;8.378;2023-02-13T00:34:34;7.50;99.90
64855;DHT22;51321;50.428;8.378;2023-02-13T00:37:18;7.50;99.90
64855;DHT22;51321;50.428;8.378;2023-02-13T00:39:59;7.50;99.90
64855;DHT22;51321;50.428;8.378;2023-02-13T00:42:40;7.50;99.90
64855;DHT22;51321;50.428;8.378;2023-02-13T00:45:25;7.50;99.90
64855;DHT22;51321;50.428;8.378;2023-02-13T00:48:08;7.50;99.90
64855;DHT22;51321;50.428;8.378;2023-02-13T00:50:55;7.40;99.90
64855;DHT22;51321;50.428;8.378;2023-02-13T00:53:38;7.40;99.90
64855;DHT22;51321;50.428;8.378;2023-02-13T00:56:20;7.40;99.90
64855;DHT22;51321;50.428;8.378;2023-02-13T00:59:04;7.40;99.90
64855;DHT22;51321;50.428;8.378;2023-02-13T01:01:47;7.40;99.90
64855;DHT22;51321;50.428;8.378;2023-02-13T01:04:31;7.40;99.90
64855;DHT22;51321;50.428;8.378;2023-02-13T01:07:13;7.40;99.90
64855;DHT22;51321;50.428;8.378;2023-02-13T01:09:56;7.40;99.90
64855;DHT22;51321;50.428;8.378;2023-02-13T01:12:39;7.40;99.90
64855;DHT22;51321;50.428;8.378;2023-02-13T01:15:20;7.30;99.90
64855;DHT22;51321;50.428;8.378;2023-02-13T01:18:04;7.20;99.90
64855;DHT22;51321;50.428;8.378;2023-02-13T01:20:55;7.30;99.90
64855;DHT22;51321;50.428;8.378;2023-02-13T01:23:38;7.30;99.90
64855;DHT22;51321;50.428;8.378;2023-02-13T01:26:22;7.20;99.90
64855;DHT22;51321;50.428;8.378;2023-02-13T01:29:03;7.20;99.90
64855;DHT22;51321;50.428;8.378;2023-02-13T01:31:47;7.20;99.90
64855;DHT22;51321;50.428;8.378;2023-02-13T01:34:28;7.20;99.90
64855;DHT22;51321;50.428;8.378;2023-02-13T01:37:09;7.10;99.90
64855;DHT22;51321;50.428;8.378;2023-02-13T01:39:50;7.10;99.90
64855;DHT22;51321;50.428;8.378;2023-02-13T01:42:34;7.20;99.90
64855;DHT22;51321;50.428;8.378;2023-02-13T01:45:25;7.20;99.90
64855;DHT22;51321;50.428;8.378;2023-02-13T01:48:13;7.10;99.90
64855;DHT22;51321;50.428;8.378;2023-02-13T01:51:03;7.10;99.90
64855;DHT22;51321;50.428;8.378;2023-02-13T01:53:50;7.10;99.90
64855;DHT22;51321;50.428;8.378;2023-02-13T01:56:34;7.10;99.90
64855;DHT22;51321;50.428;8.378;2023-02-13T01:59:25;7.20;99.90
64855;DHT22;51321;50.428;8.378;2023-02-13T02:02:20;7.20;99.90
64855;DHT22;51321;50.428;8.378;2023-02-13T02:05:02;7.20;99.90
64855;DHT22;51321;50.428;8.378;2023-02-13T02:07:45;7.20;99.90
64855;DHT22;51321;50.428;8.378;2023-02-13T02:10:37;7.20;99.90
64855;DHT22;51321;50.428;8.378;2023-02-13T02:13:21;7.20;99.90
64855;DHT22;51321;50.428;8.378;2023-02-13T02:16:20;7.00;99.90
64855;DHT22;51321;50.428;8.378;2023-02-13T02:19:03;7.10;99.90
64855;DHT22;51321;50.428;8.378;2023-02-13T02:22:17;7.00;99.90
64855;DHT22;51321;50.428;8.378;2023-02-13T02:25:27;7.00;99.90
64855;DHT22;51321;50.428;8.378;2023-02-13T02:28:30;7.00;99.90
64855;DHT22;51321;50.428;8.378;2023-02-13T02:31:48;7.00;99.90
64855;DHT22;51321;50.428;8.378;2023-02-13T02:34:47;7.00;99.90
64855;DHT22;51321;50.428;8.378;2023-02-13T02:37:46;7.10;99.90
64855;DHT22;51321;50.428;8.378;2023-02-13T02:40:36;7.10;99.90
64855;DHT22;51321;50.428;8.378;2023-02-13T02:43:31;7.00;99.90
64855;DHT22;51321;50.428;8.378;2023-02-13T02:46:21;7.00;99.90
64855;DHT22;51321;50.428;8.378;2023-02-13T02:49:13;7.00;99.90
64855;DHT22;51321;50.428;8.378;2023-02-13T02:52:16;7.10;99.90
64855;DHT22;51321;50.428;8.378;2023-02-13T02:55:07;7.10;99.90
64855;DHT22;51321;50.428;8.378;2023-02-13T02:58:04;7.00;99.90
64855;DHT22;51321;50.428;8.378;2023-02-13T03:01:17;7.00;99.90
64855;DHT22;51321;50.428;8.378;2023-02-13T03:04:25;7.00;99.90
64855;DHT22;51321;50.428;8.378;2023-02-13T03:07:26;7.00;99.90
64855;DHT22;51321;50.428;8.378;2023-02-13T03:10:11;7.00;99.90
64855;DHT22;51321;50.428;8.378;2023-02-13T03:13:13;7.10;99.90
64855;DHT22;51321;50.428;8.378;2023-02-13T03:16:02;7.10;99.90
64855;DHT22;51321;50.428;8.378;2023-02-13T03:19:01;7.00;99.90
64855;DHT22;51321;50.428;8.378;2023-02-13T03:22:05;7.00;99.90
64855;DHT22;51321;50.428;8.378;2023-02-13T03:25:06;7.10;99.90
64855;DHT22;51321;50.428;8.378;2023-02-13T03:28:00;7.10;99.90
64855;DHT22;51321;50.428;8.378;2023-02-13T03:31:11;7.00;99.90
64855;DHT22;51321;50.428;8.378;2023-02-13T03:33:58;6.90;99.90
64855;DHT22;51321;50.428;8.378;2023-02-13T03:36:46;6.80;99.90
64855;DHT22;51321;50.428;8.378;2023-02-13T03:39:59;6.70;99.90
64855;DHT22;51321;50.428;8.378;2023-02-13T03:42:46;6.60;99.90
64855;DHT22;51321;50.428;8.378;2023-02-13T03:45:31;6.60;99.90
64855;DHT22;51321;50.428;8.378;2023-02-13T03:48:36;6.50;99.90
64855;DHT22;51321;50.428;8.378;2023-02-13T03:51:39;6.30;99.90
64855;DHT22;51321;50.428;8.378;2023-02-13T03:54:29;6.00;99.90
64855;DHT22;51321;50.428;8.378;2023-02-13T03:57:33;5.90;99.90
64855;DHT22;51321;50.428;8.378;2023-02-13T04:00:37;5.80;99.90
64855;DHT22;51321;50.428;8.378;2023-02-13T04:03:23;5.60;99.90
64855;DHT22;51321;50.428;8.378;2023-02-13T04:06:08;5.60;99.90
64855;DHT22;51321;50.428;8.378;2023-02-13T04:08:55;5.50;99.90
64855;DHT22;51321;50.428;8.378;2023-02-13T04:11:39;5.40;99.90
64855;DHT22;51321;50.428;8.378;2023-02-13T04:14:32;5.40;99.90
64855;DHT22;51321;50.428;8.378;2023-02-13T04:17:20;5.10;99.90
64855;DHT22;51321;50.428;8.378;2023-02-13T04:20:03;5.10;99.90
64855;DHT22;51321;50.428;8.378;2023-02-13T04:22:46;5.10;99.90
64855;DHT22;51321;50.428;8.378;2023-02-13T04:25:27;4.80;99.90
64855;DHT22;51321;50.428;8.378;2023-02-13T04:28:11;4.80;99.90
64855;DHT22;51321;50.428;8.378;2023-02-13T04:30:54;4.80;99.90
64855;DHT22;51321;50.428;8.378;2023-02-13T04:33:38;4.80;99.90
64855;DHT22;51321;50.428;8.378;2023-02-13T04:36:19;4.60;99.90
64855;DHT22;51321;50.428;8.378;2023-02-13T04:38:59;4.50;99.90
64855;DHT22;51321;50.428;8.378;2023-02-13T04:41:46;4.50;99.90
64855;DHT22;51321;50.428;8.378;2023-02-13T04:44:30;4.40;99.90
64855;DHT22;51321;50.428;8.378;2023-02-13T04:47:17;4.20;99.90
64855;DHT22;51321;50.428;8.378;2023-02-13T04:50:01;4.10;99.90
64855;DHT22;51321;50.428;8.378;2023-02-13T04:52:44;4.10;99.90
64855;DHT22;51321;50.428;8.378;2023-02-13T04:55:26;4.00;99.90
64855;DHT22;51321;50.428;8.378;2023-02-13T04:58:10;4.00;99.90
64855;DHT22;51321;50.428;8.378;2023-02-13T05:00:52;3.90;99.90
64855;DHT22;51321;50.428;8.378;2023-02-13T05:03:39;3.70;99.90
64855;DHT22;51321;50.428;8.378;2023-02-13T05:06:20;3.70;99.90
64855;DHT22;51321;50.428;8.378;2023-02-13T05:09:01;3.50;99.90
64855;DHT22;51321;50.428;8.378;2023-02-13T05:11:46;3.40;99.90
64855;DHT22;51321;50.428;8.378;2023-02-13T05:14:31;3.40;99.90
64855;DHT22;51321;50.428;8.378;2023-02-13T05:17:15;3.40;99.90
64855;DHT22;51321;50.428;8.378;2023-02-13T05:19:59;3.30;99.90
64855;DHT22;51321;50.428;8.378;2023-02-13T05:22:43;3.30;99.90
64855;DHT22;51321;50.428;8.378;2023-02-13T05:25:41;3.30;99.90
64855;DHT22;51321;50.428;8.378;2023-02-13T05:28:23;3.30;99.90
64855;DHT22;51321;50.428;8.378;2023-02-13T05:31:21;3.10;99.90
64855;DHT22;51321;50.428;8.378;2023-02-13T05:34:05;3.00;99.90
64855;DHT22;51321;50.428;8.378;2023-02-13T05:36:48;3.10;99.90
64855;DHT22;51321;50.428;8.378;2023-02-13T05:39:29;3.20;99.90
64855;DHT22;51321;50.428;8.378;2023-02-13T05:42:16;3.10;99.90
64855;DHT22;51321;50.428;8.378;2023-02-13T05:44:57;3.00;99.90
64855;DHT22;51321;50.428;8.378;2023-02-13T05:47:38;2.90;99.90
64855;DHT22;51321;50.428;8.378;2023-02-13T05:50:19;2.80;99.90
64855;DHT22;51321;50.428;8.378;2023-02-13T05:53:03;2.80;99.90
64855;DHT22;51321;50.428;8.378;2023-02-13T05:55:50;2.80;99.90
64855;DHT22;51321;50.428;8.378;2023-02-13T05:58:32;2.70;99.90
64855;DHT22;51321;50.428;8.378;2023-02-13T06:01:16;2.60;99.90
64855;DHT22;51321;50.428;8.378;2023-02-13T06:03:57;2.60;99.90
64855;DHT22;51321;50.428;8.378;2023-02-13T06:06:38;2.50;99.90
64855;DHT22;51321;50.428;8.378;2023-02-13T06:09:21;2.50;99.90
64855;DHT22;51321;50.428;8.378;2023-02-13T06:12:04;2.60;99.90
64855;DHT22;51321;50.428;8.378;2023-02-13T06:14:45;2.50;99.90
64855;DHT22;51321;50.428;8.378;2023-02-13T06:17:26;2.60;99.90
64855;DHT22;51321;50.428;8.378;2023-02-13T06:20:08;2.60;99.90
64855;DHT22;51321;50.428;8.378;2023-02-13T06:22:51;2.60;99.90
64855;DHT22;51321;50.428;8.378;2023-02-13T06:25:36;2.40;99.90
64855;DHT22;51321;50.428;8.378;2023-02-13T06:28:18;2.30;99.90
64855;DHT22;51321;50.428;8.378;2023-02-13T06:31:01;2.20;99.90
64855;DHT22;51321;50.428;8.378;2023-02-13T06:33:48;2.20;99.90
64855;DHT22;51321;50.428;8.378;2023-02-13T06:36:33;2.10;99.90
64855;DHT22;51321;50.428;8.378;2023-02-13T06:39:19;2.10;99.90
64855;DHT22;51321;50.428;8.378;2023-02-13T06:42:01;1.90;99.90
64855;DHT22;51321;50.428;8.378;2023-02-13T06:44:44;1.90;99.90
64855;DHT22;51321;50.428;8.378;2023-02-13T06:47:31;1.90;99.90
64855;DHT22;51321;50.428;8.378;2023-02-13T06:50:16;1.80;99.90
64855;DHT22;51321;50.428;8.378;2023-02-13T06:52:59;1.90;99.90
64855;DHT22;51321;50.428;8.378;2023-02-13T06:55:42;1.80;99.90
64855;DHT22;51321;50.428;8.378;2023-02-13T06:58:25;1.80;99.90
64855;DHT22;51321;50.428;8.378;2023-02-13T07:01:06;1.90;99.90
64855;DHT22;51321;50.428;8.378;2023-02-13T07:03:48;1.90;99.90
64855;DHT22;51321;50.428;8.378;2023-02-13T07:06:32;2.00;99.90
64855;DHT22;51321;50.428;8.378;2023-02-13T07:09:13;1.90;99.90
64855;DHT22;51321;50.428;8.378;2023-02-13T07:12:02;1.90;99.90
64855;DHT22;51321;50.428;8.378;2023-02-13T07:14:47;1.90;99.90
64855;DHT22;51321;50.428;8.378;2023-02-13T07:17:29;1.90;99.90
64855;DHT22;51321;50.428;8.378;2023-02-13T07:20:11;1.90;99.90
64855;DHT22;51321;50.428;8.378;2023-02-13T07:22:56;2.10;99.90
64855;DHT22;51321;50.428;8.378;2023-02-13T07:25:36;2.20;99.90
64855;DHT22;51321;50.428;8.378;2023-02-13T07:28:17;2.20;99.90
64855;DHT22;51321;50.428;8.378;2023-02-13T07:31:04;2.20;99.90
64855;DHT22;51321;50.428;8.378;2023-02-13T07:33:50;2.20;99.90
64855;DHT22;51321;50.428;8.378;2023-02-13T07:36:33;2.20;99.90
64855;DHT22;51321;50.428;8.378;2023-02-13T07:39:14;2.30;99.90
64855;DHT22;51321;50.428;8.378;2023-02-13T07:41:57;2.40;99.90
64855;DHT22;51321;50.428;8.378;2023-02-13T07:44:41;2.40;99.90
64855;DHT22;51321;50.428;8.378;2023-02-13T07:47:23;2.50;99.90
64855;DHT22;51321;50.428;8.378;2023-02-13T07:50:06;2.50;99.90
64855;DHT22;51321;50.428;8.378;2023-02-13T07:52:52;2.60;99.90
64855;DHT22;51321;50.428;8.378;2023-02-13T07:55:37;2.70;99.90
64855;DHT22;51321;50.428;8.378;2023-02-13T07:58:20;2.90;99.90
64855;DHT22;51321;50.428;8.378;2023-02-13T08:01:05;3.00;99.90
64855;DHT22;51321;50.428;8.378;2023-02-13T08:03:53;3.10;99.90
64855;DHT22;51321;50.428;8.378;2023-02-13T08:06:38;3.30;99.90
64855;DHT22;51321;50.428;8.378;2023-02-13T08:09:20;3.20;99.90
64855;DHT22;51321;50.428;8.378;2023-02-13T08:12:19;3.40;99.90
64855;DHT22;51321;50.428;8.378;2023-02-13T08:15:00;3.60;99.90
64855;DHT22;51321;50.428;8.378;2023-02-13T08:17:41;3.70;99.90
64855;DHT22;51321;50.428;8.378;2023-02-13T08:20:23;3.90;99.90
64855;DHT22;51321;50.428;8.378;2023-02-13T08:23:08;4.10;99.90
64855;DHT22;51321;50.428;8.378;2023-02-13T08:25:50;4.10;99.90
64855;DHT22;51321;50.428;8.378;2023-02-13T08:28:37;4.30;99.90
64855;DHT22;51321;50.428;8.378;2023-02-13T08:31:20;4.40;99.90
64855;DHT22;51321;50.428;8.378;2023-02-13T08:34:03;4.50;99.90
64855;DHT22;51321;50.428;8.378;2023-02-13T08:36:45;4.60;99.90
64855;DHT22;51321;50.428;8.378;2023-02-13T08:39:37;4.80;99.90
64855;DHT22;51321;50.428;8.378;2023-02-13T08:42:26;5.00;99.90
64855;DHT22;51321;50.428;8.378;2023-02-13T08:45:09;5.30;99.90
64855;DHT22;51321;50.428;8.378;2023-02-13T08:47:54;5.50;99.90
64855;DHT22;51321;50.428;8.378;2023-02-13T08:50:38;5.70;99.90
64855;DHT22;51321;50.428;8.378;2023-02-13T08:53:23;5.80;99.90
64855;DHT22;51321;50.428;8.378;2023-02-13T08:56:06;6.00;99.90
64855;DHT22;51321;50.428;8.378;2023-02-13T08:58:48;6.10;99.90
64855;DHT22;51321;50.428;8.378;2023-02-13T09:01:32;6.20;99.90
64855;DHT22;51321;50.428;8.378;2023-02-13T09:04:19;6.30;99.90
64855;DHT22;51321;50.428;8.378;2023-02-13T09:07:00;6.60;99.90
64855;DHT22;51321;50.428;8.378;2023-02-13T09:09:45;6.80;99.90
64855;DHT22;51321;50.428;8.378;2023-02-13T09:12:26;6.90;99.90
64855;DHT22;51321;50.428;8.378;2023-02-13T09:15:12;7.10;99.90
64855;DHT22;51321;50.428;8.378;2023-02-13T09:17:56;7.40;99.90
64855;DHT22;51321;50.428;8.378;2023-02-13T09:20:39;7.60;99.90
64855;DHT22;51321;50.428;8.378;2023-02-13T09:23:24;7.80;99.90
64855;DHT22;51321;50.428;8.378;2023-02-13T09:26:08;8.00;99.90
64855;DHT22;51321;50.428;8.378;2023-02-13T09:28:50;8.30;99.90
64855;DHT22;51321;50.428;8.378;2023-02-13T09:31:39;8.50;99.90
64855;DHT22;51321;50.428;8.378;2023-02-13T09:34:23;8.50;99.90
64855;DHT22;51321;50.428;8.378;2023-02-13T09:37:07;8.80;99.90
64855;DHT22;51321;50.428;8.378;2023-02-13T09:39:48;9.00;99.90
64855;DHT22;51321;50.428;8.378;2023-02-13T09:42:35;9.10;99.90
64855;DHT22;51321;50.428;8.378;2023-02-13T09:45:22;9.30;99.90
64855;DHT22;51321;50.428;8.378;2023-02-13T09:48:17;9.20;99.90
64855;DHT22;51321;50.428;8.378;2023-02-13T09:50:59;9.40;99.90
64855;DHT22;51321;50.428;8.378;2023-02-13T09:53:49;9.60;99.90
64855;DHT22;51321;50.428;8.378;2023-02-13T09:56:38;9.80;99.90
64855;DHT22;51321;50.428;8.378;2023-02-13T09:59:38;10.10;99.90
64855;DHT22;51321;50.428;8.378;2023-02-13T10:02:41;10.00;99.90
64855;DHT22;51321;50.428;8.378;2023-02-13T10:08:53;10.30;99.90
64855;DHT22;51321;50.428;8.378;2023-02-13T10:12:01;10.50;99.90
64855;DHT22;51321;50.428;8.378;2023-02-13T10:14:53;10.90;99.90
64855;DHT22;51321;50.428;8.378;2023-02-13T10:17:43;11.10;99.90
64855;DHT22;51321;50.428;8.378;2023-02-13T10:20:31;11.30;99.90
64855;DHT22;51321;50.428;8.378;2023-02-13T10:23:23;11.40;99.90
64855;DHT22;51321;50.428;8.378;2023-02-13T10:26:10;11.70;99.90
64855;DHT22;51321;50.428;8.378;2023-02-13T10:28:59;11.80;99.90
64855;DHT22;51321;50.428;8.378;2023-02-13T10:32:06;12.00;99.90
64855;DHT22;51321;50.428;8.378;2023-02-13T10:34:51;12.00;99.90
64855;DHT22;51321;50.428;8.378;2023-02-13T10:37:34;12.20;99.90
64855;DHT22;51321;50.428;8.378;2023-02-13T10:40:16;12.30;99.90
64855;DHT22;51321;50.428;8.378;2023-02-13T10:43:02;12.40;99.90
64855;DHT22;51321;50.428;8.378;2023-02-13T10:45:53;12.40;99.90
64855;DHT22;51321;50.428;8.378;2023-02-13T10:51:51;12.20;99.90
64855;DHT22;51321;50.428;8.378;2023-02-13T10:54:54;12.40;99.90
64855;DHT22;51321;50.428;8.378;2023-02-13T10:57:53;12.50;99.90
64855;DHT22;51321;50.428;8.378;2023-02-13T11:00:45;12.50;99.90
64855;DHT22;51321;50.428;8.378;2023-02-13T11:03:28;12.50;99.90
64855;DHT22;51321;50.428;8.378;2023-02-13T11:06:14;12.20;99.90
64855;DHT22;51321;50.428;8.378;2023-02-13T11:08:58;12.20;99.90
64855;DHT22;51321;50.428;8.378;2023-02-13T11:11:41;12.30;99.90
64855;DHT22;51321;50.428;8.378;2023-02-13T11:14:23;12.30;99.90
64855;DHT22;51321;50.428;8.378;2023-02-13T11:17:11;12.60;99.90
64855;DHT22;51321;50.428;8.378;2023-02-13T11:20:04;12.80;99.90
64855;DHT22;51321;50.428;8.378;2023-02-13T11:22:51;12.70;99.90
64855;DHT22;51321;50.428;8.378;2023-02-13T11:25:35;12.80;99.90
64855;DHT22;51321;50.428;8.378;2023-02-13T11:28:22;13.10;99.90
64855;DHT22;51321;50.428;8.378;2023-02-13T11:31:21;13.00;99.90
64855;DHT22;51321;50.428;8.378;2023-02-13T11:34:21;12.90;99.90
64855;DHT22;51321;50.428;8.378;2023-02-13T11:37:25;12.80;99.90
64855;DHT22;51321;50.428;8.378;2023-02-13T11:40:28;13.00;99.90
64855;DHT22;51321;50.428;8.378;2023-02-13T11:43:17;13.20;99.90
64855;DHT22;51321;50.428;8.378;2023-02-13T11:46:15;13.10;99.90
64855;DHT22;51321;50.428;8.378;2023-02-13T11:49:02;13.40;99.90
64855;DHT22;51321;50.428;8.378;2023-02-13T11:51:48;13.70;99.90
64855;DHT22;51321;50.428;8.378;2023-02-13T11:54:34;14.10;99.90
64855;DHT22;51321;50.428;8.378;2023-02-13T11:57:19;14.20;99.90
64855;DHT22;51321;50.428;8.378;2023-02-13T12:00:29;14.20;99.80
64855;DHT22;51321;50.428;8.378;2023-02-13T12:03:25;14.00;99.90
64855;DHT22;51321;50.428;8.378;2023-02-13T12:06:14;14.00;99.90
64855;DHT22;51321;50.428;8.378;2023-02-13T12:08:58;14.10;99.50
64855;DHT22;51321;50.428;8.378;2023-02-13T12:11:45;14.10;99.50
64855;DHT22;51321;50.428;8.378;2023-02-13T12:14:31;13.90;99.20
64855;DHT22;51321;50.428;8.378;2023-02-13T12:17:18;13.80;99.40
64855;DHT22;51321;50.428;8.378;2023-02-13T12:20:10;13.70;99.70
64855;DHT22;51321;50.428;8.378;2023-02-13T12:23:00;13.80;99.90
64855;DHT22;51321;50.428;8.378;2023-02-13T12:25:59;13.90;99.90
64855;DHT22;51321;50.428;8.378;2023-02-13T12:29:02;14.00;99.50
64855;DHT22;51321;50.428;8.378;2023-02-13T12:32:13;13.80;99.90
64855;DHT22;51321;50.428;8.378;2023-02-13T12:35:32;14.00;99.50
64855;DHT22;51321;50.428;8.378;2023-02-13T12:38:31;14.30;99.90
64855;DHT22;51321;50.428;8.378;2023-02-13T12:41:19;14.30;98.70
64855;DHT22;51321;50.428;8.378;2023-02-13T12:44:34;14.30;99.10
64855;DHT22;51321;50.428;8.378;2023-02-13T12:47:22;14.60;99.40
64855;DHT22;51321;50.428;8.378;2023-02-13T12:50:34;14.50;98.30
64855;DHT22;51321;50.428;8.378;2023-02-13T12:53:28;14.10;98.70
64855;DHT22;51321;50.428;8.378;2023-02-13T12:56:37;14.20;98.80
64855;DHT22;51321;50.428;8.378;2023-02-13T12:59:36;14.10;98.60
64855;DHT22;51321;50.428;8.378;2023-02-13T13:02:44;14.10;99.10
64855;DHT22;51321;50.428;8.378;2023-02-13T13:05:39;14.00;99.70
64855;DHT22;51321;50.428;8.378;2023-02-13T13:08:39;14.10;99.50
64855;DHT22;51321;50.428;8.378;2023-02-13T13:14:26;13.90;99.80
64855;DHT22;51321;50.428;8.378;2023-02-13T13:17:15;13.90;99.30
64855;DHT22;51321;50.428;8.378;2023-02-13T13:20:11;13.90;99.80
64855;DHT22;51321;50.428;8.378;2023-02-13T13:23:01;14.00;99.90
64855;DHT22;51321;50.428;8.378;2023-02-13T13:25:50;13.70;98.90
64855;DHT22;51321;50.428;8.378;2023-02-13T13:28:36;13.70;99.00
64855;DHT22;51321;50.428;8.378;2023-02-13T13:31:23;13.60;99.80
64855;DHT22;51321;50.428;8.378;2023-02-13T13:34:17;13.50;99.90
64855;DHT22;51321;50.428;8.378;2023-02-13T13:37:06;13.50;99.90
64855;DHT22;51321;50.428;8.378;2023-02-13T13:39:59;13.30;99.90
64855;DHT22;51321;50.428;8.378;2023-02-13T13:42:48;13.30;99.90
64855;DHT22;51321;50.428;8.378;2023-02-13T13:45:41;13.20;99.90
64855;DHT22;51321;50.428;8.378;2023-02-13T13:48:56;13.00;99.90
64855;DHT22;51321;50.428;8.378;2023-02-13T13:51:46;12.90;99.90
64855;DHT22;51321;50.428;8.378;2023-02-13T13:54:35;12.90;99.90
64855;DHT22;51321;50.428;8.378;2023-02-13T13:57:16;12.90;99.90
64855;DHT22;51321;50.428;8.378;2023-02-13T14:00:28;12.60;99.90
64855;DHT22;51321;50.428;8.378;2023-02-13T14:03:33;12.50;99.90
64855;DHT22;51321;50.428;8.378;2023-02-13T14:06:22;12.40;99.90
64855;DHT22;51321;50.428;8.378;2023-02-13T14:12:36;12.20;99.90
64855;DHT22;51321;50.428;8.378;2023-02-13T14:18:48;12.00;99.90
64855;DHT22;51321;50.428;8.378;2023-02-13T14:21:32;11.90;99.90
64855;DHT22;51321;50.428;8.378;2023-02-13T14:24:13;11.80;99.90
64855;DHT22;51321;50.428;8.378;2023-02-13T14:26:58;11.70;99.90
64855;DHT22;51321;50.428;8.378;2023-02-13T14:29:46;11.60;99.90
64855;DHT22;51321;50.428;8.378;2023-02-13T14:32:32;11.50;99.90
64855;DHT22;51321;50.428;8.378;2023-02-13T14:35:24;11.50;99.90
64855;DHT22;51321;50.428;8.378;2023-02-13T14:38:22;11.40;99.90
64855;DHT22;51321;50.428;8.378;2023-02-13T14:41:04;11.30;99.90
64855;DHT22;51321;50.428;8.378;2023-02-13T14:43:56;11.20;99.90
64855;DHT22;51321;50.428;8.378;2023-02-13T14:46:42;11.20;99.90
64855;DHT22;51321;50.428;8.378;2023-02-13T14:49:30;11.10;99.90
64855;DHT22;51321;50.428;8.378;2023-02-13T14:52:17;11.10;99.90
64855;DHT22;51321;50.428;8.378;2023-02-13T14:55:02;11.00;99.90
64855;DHT22;51321;50.428;8.378;2023-02-13T14:57:48;11.00;99.90
64855;DHT22;51321;50.428;8.378;2023-02-13T15:00:39;10.90;99.90
64855;DHT22;51321;50.428;8.378;2023-02-13T15:03:29;10.90;99.90
64855;DHT22;51321;50.428;8.378;2023-02-13T15:06:25;10.80;99.90
64855;DHT22;51321;50.428;8.378;2023-02-13T15:09:26;10.80;99.90
64855;DHT22;51321;50.428;8.378;2023-02-13T15:12:28;10.70;99.90
64855;DHT22;51321;50.428;8.378;2023-02-13T15:15:22;10.70;99.90
64855;DHT22;51321;50.428;8.378;2023-02-13T15:18:15;10.60;99.90
64855;DHT22;51321;50.428;8.378;2023-02-13T15:21:08;10.60;99.90
64855;DHT22;51321;50.428;8.378;2023-02-13T15:23:58;10.50;99.90
64855;DHT22;51321;50.428;8.378;2023-02-13T15:26:42;10.40;99.90
64855;DHT22;51321;50.428;8.378;2023-02-13T15:29:29;10.30;99.90
64855;DHT22;51321;50.428;8.378;2023-02-13T15:32:23;10.30;99.90
64855;DHT22;51321;50.428;8.378;2023-02-13T15:35:20;10.10;99.90
64855;DHT22;51321;50.428;8.378;2023-02-13T15:40:58;10.00;99.90
64855;DHT22;51321;50.428;8.378;2023-02-13T15:43:44;10.10;99.90
64855;DHT22;51321;50.428;8.378;2023-02-13T15:46:32;10.00;99.90
64855;DHT22;51321;50.428;8.378;2023-02-13T15:49:18;9.90;99.90
64855;DHT22;51321;50.428;8.378;2023-02-13T15:52:05;9.80;99.90
64855;DHT22;51321;50.428;8.378;2023-02-13T15:54:54;9.80;99.90
64855;DHT22;51321;50.428;8.378;2023-02-13T15:57:39;9.80;99.90
64855;DHT22;51321;50.428;8.378;2023-02-13T16:00:28;9.90;99.90
64855;DHT22;51321;50.428;8.378;2023-02-13T16:03:19;9.80;99.90
64855;DHT22;51321;50.428;8.378;2023-02-13T16:06:04;9.70;99.90
64855;DHT22;51321;50.428;8.378;2023-02-13T16:08:59;9.70;99.90
64855;DHT22;51321;50.428;8.378;2023-02-13T16:11:43;9.60;99.90
64855;DHT22;51321;50.428;8.378;2023-02-13T16:14:33;9.50;99.90
64855;DHT22;51321;50.428;8.378;2023-02-13T16:17:22;9.50;99.90
64855;DHT22;51321;50.428;8.378;2023-02-13T16:20:18;9.40;99.90
64855;DHT22;51321;50.428;8.378;2023-02-13T16:23:07;9.30;99.90
64855;DHT22;51321;50.428;8.378;2023-02-13T16:26:00;9.10;99.90
64855;DHT22;51321;50.428;8.378;2023-02-13T16:28:55;9.00;99.90
64855;DHT22;51321;50.428;8.378;2023-02-13T16:31:44;8.80;99.90
64855;DHT22;51321;50.428;8.378;2023-02-13T16:34:30;8.80;99.90
64855;DHT22;51321;50.428;8.378;2023-02-13T16:37:32;8.70;99.90
64855;DHT22;51321;50.428;8.378;2023-02-13T16:40:38;8.60;99.90
64855;DHT22;51321;50.428;8.378;2023-02-13T16:43:37;8.40;99.90
64855;DHT22;51321;50.428;8.378;2023-02-13T16:46:32;8.20;99.90
64855;DHT22;51321;50.428;8.378;2023-02-13T16:49:19;8.20;99.90
64855;DHT22;51321;50.428;8.378;2023-02-13T16:52:14;8.10;99.90
64855;DHT22;51321;50.428;8.378;2023-02-13T16:54:58;8.00;99.90
64855;DHT22;51321;50.428;8.378;2023-02-13T16:57:46;7.90;99.90
64855;DHT22;51321;50.428;8.378;2023-02-13T17:00:29;7.70;99.90
64855;DHT22;51321;50.428;8.378;2023-02-13T17:03:12;7.70;99.90
64855;DHT22;51321;50.428;8.378;2023-02-13T17:06:00;7.60;99.90
64855;DHT22;51321;50.428;8.378;2023-02-13T17:08:57;7.50;99.90
64855;DHT22;51321;50.428;8.378;2023-02-13T17:11:49;7.40;99.90
64855;DHT22;51321;50.428;8.378;2023-02-13T17:14:36;7.20;99.90
64855;DHT22;51321;50.428;8.378;2023-02-13T17:17:25;7.00;99.90
64855;DHT22;51321;50.428;8.378;2023-02-13T17:20:25;6.90;99.90
64855;DHT22;51321;50.428;8.378;2023-02-13T17:23:14;6.80;99.90
64855;DHT22;51321;50.428;8.378;2023-02-13T17:25:59;6.70;99.90
64855;DHT22;51321;50.428;8.378;2023-02-13T17:28:40;6.60;99.90
64855;DHT22;51321;50.428;8.378;2023-02-13T17:31:21;6.60;99.90
64855;DHT22;51321;50.428;8.378;2023-02-13T17:34:03;6.40;99.90
64855;DHT22;51321;50.428;8.378;2023-02-13T17:36:47;6.30;99.90
64855;DHT22;51321;50.428;8.378;2023-02-13T17:39:30;6.30;99.90
64855;DHT22;51321;50.428;8.378;2023-02-13T17:42:17;6.30;99.90
64855;DHT22;51321;50.428;8.378;2023-02-13T17:45:09;6.20;99.90
64855;DHT22;51321;50.428;8.378;2023-02-13T17:47:54;6.20;99.90
64855;DHT22;51321;50.428;8.378;2023-02-13T17:50:40;6.10;99.90
64855;DHT22;51321;50.428;8.378;2023-02-13T17:53:25;6.00;99.90
64855;DHT22;51321;50.428;8.378;2023-02-13T17:56:17;6.00;99.90
64855;DHT22;51321;50.428;8.378;2023-02-13T17:59:08;5.80;99.90
64855;DHT22;51321;50.428;8.378;2023-02-13T18:01:55;5.60;99.90
64855;DHT22;51321;50.428;8.378;2023-02-13T18:04:45;5.70;99.90
64855;DHT22;51321;50.428;8.378;2023-02-13T18:07:28;5.70;99.90
64855;DHT22;51321;50.428;8.378;2023-02-13T18:10:17;5.60;99.90
64855;DHT22;51321;50.428;8.378;2023-02-13T18:13:01;5.50;99.90
64855;DHT22;51321;50.428;8.378;2023-02-13T18:15:44;5.40;99.90
64855;DHT22;51321;50.428;8.378;2023-02-13T18:18:27;5.30;99.90